sensor_id;sensor_type;location;lat;lon;timestamp;temperature;humidity
46085;DHT22;31823;47.032;8.310;2023-05-29T00:01:12;14.10;99.90
46085;DHT22;31823;47.032;8.310;2023-05-29T00:03:38;14.10;99.90
46085;DHT22;31823;47.032;8.310;2023-05-29T00:06:03;14.00;99.90
46085;DHT22;31823;47.032;8.310;2023-05-29T00:08:31;14.00;99.90
46085;DHT22;31823;47.032;8.310;2023-05-29T00:10:56;14.10;99.90
46085;DHT22;31823;47.032;8.310;2023-05-29T00:13:22;14.00;99.90
46085;DHT22;31823;47.032;8.310;2023-05-29T00:15:48;13.90;99.90
46085;DHT22;31823;47.032;8.310;2023-05-29T00:18:13;13.80;99.90
46085;DHT22;31823;47.032;8.310;2023-05-29T00:20:39;13.80;99.90
46085;DHT22;31823;47.032;8.310;2023-05-29T00:23:05;13.80;99.90
46085;DHT22;31823;47.032;8.310;2023-05-29T00:25:32;13.80;99.90
46085;DHT22;31823;47.032;8.310;2023-05-29T00:27:58;13.80;99.90
46085;DHT22;31823;47.032;8.310;2023-05-29T00:30:23;13.80;99.90
46085;DHT22;31823;47.032;8.310;2023-05-29T00:32:50;13.70;99.90
46085;DHT22;31823;47.032;8.310;2023-05-29T00:35:17;13.70;99.90
46085;DHT22;31823;47.032;8.310;2023-05-29T00:37:43;13.70;99.90
46085;DHT22;31823;47.032;8.310;2023-05-29T00:40:09;13.70;99.90
46085;DHT22;31823;47.032;8.310;2023-05-29T00:42:35;13.70;99.90
46085;DHT22;31823;47.032;8.310;2023-05-29T00:45:01;13.70;99.90
46085;DHT22;31823;47.032;8.310;2023-05-29T00:47:26;13.60;99.90
46085;DHT22;31823;47.032;8.310;2023-05-29T00:49:53;13.60;99.90
46085;DHT22;31823;47.032;8.310;2023-05-29T00:52:19;13.60;99.90
46085;DHT22;31823;47.032;8.310;2023-05-29T00:54:45;13.50;99.90
46085;DHT22;31823;47.032;8.310;2023-05-29T00:57:12;13.50;99.90
46085;DHT22;31823;47.032;8.310;2023-05-29T00:59:39;13.50;99.90
46085;DHT22;31823;47.032;8.310;2023-05-29T01:02:06;13.40;99.90
46085;DHT22;31823;47.032;8.310;2023-05-29T01:04:31;13.40;99.90
46085;DHT22;31823;47.032;8.310;2023-05-29T01:07:00;13.40;99.90
46085;DHT22;31823;47.032;8.310;2023-05-29T01:09:31;13.40;99.90
46085;DHT22;31823;47.032;8.310;2023-05-29T01:12:23;13.40;99.90
46085;DHT22;31823;47.032;8.310;2023-05-29T01:17:37;13.40;99.90
46085;DHT22;31823;47.032;8.310;2023-05-29T01:20:15;13.30;99.90
46085;DHT22;31823;47.032;8.310;2023-05-29T01:25:39;13.30;99.90
46085;DHT22;31823;47.032;8.310;2023-05-29T01:28:09;13.20;99.90
46085;DHT22;31823;47.032;8.310;2023-05-29T01:30:37;13.20;99.90
46085;DHT22;31823;47.032;8.310;2023-05-29T01:33:04;13.20;99.90
46085;DHT22;31823;47.032;8.310;2023-05-29T01:35:30;13.20;99.90
46085;DHT22;31823;47.032;8.310;2023-05-29T01:37:56;13.20;99.90
46085;DHT22;31823;47.032;8.310;2023-05-29T01:40:21;13.10;99.90
46085;DHT22;31823;47.032;8.310;2023-05-29T01:42:47;13.10;99.90
46085;DHT22;31823;47.032;8.310;2023-05-29T01:45:13;13.10;99.90
46085;DHT22;31823;47.032;8.310;2023-05-29T01:47:39;13.10;99.90
46085;DHT22;31823;47.032;8.310;2023-05-29T01:50:06;13.10;99.90
46085;DHT22;31823;47.032;8.310;2023-05-29T01:52:32;13.10;99.90
46085;DHT22;31823;47.032;8.310;2023-05-29T01:54:57;13.00;99.90
46085;DHT22;31823;47.032;8.310;2023-05-29T01:57:24;12.90;99.90
46085;DHT22;31823;47.032;8.310;2023-05-29T01:59:51;12.90;99.90
46085;DHT22;31823;47.032;8.310;2023-05-29T02:02:16;12.90;99.90
46085;DHT22;31823;47.032;8.310;2023-05-29T02:04:42;12.90;99.90
46085;DHT22;31823;47.032;8.310;2023-05-29T02:07:07;13.00;99.90
46085;DHT22;31823;47.032;8.310;2023-05-29T02:09:34;13.00;99.90
46085;DHT22;31823;47.032;8.310;2023-05-29T02:12:00;12.90;99.90
46085;DHT22;31823;47.032;8.310;2023-05-29T02:14:27;12.90;99.90
46085;DHT22;31823;47.032;8.310;2023-05-29T02:16:52;12.80;99.90
46085;DHT22;31823;47.032;8.310;2023-05-29T02:19:19;12.80;99.90
46085;DHT22;31823;47.032;8.310;2023-05-29T02:21:46;12.70;99.90
46085;DHT22;31823;47.032;8.310;2023-05-29T02:24:12;12.80;99.90
46085;DHT22;31823;47.032;8.310;2023-05-29T02:26:37;12.80;99.90
46085;DHT22;31823;47.032;8.310;2023-05-29T02:29:03;12.80;99.90
46085;DHT22;31823;47.032;8.310;2023-05-29T02:31:32;12.70;99.90
46085;DHT22;31823;47.032;8.310;2023-05-29T02:33:57;12.70;99.90
46085;DHT22;31823;47.032;8.310;2023-05-29T02:36:23;12.70;99.90
46085;DHT22;31823;47.032;8.310;2023-05-29T02:38:48;12.70;99.90
46085;DHT22;31823;47.032;8.310;2023-05-29T02:41:14;12.70;99.90
46085;DHT22;31823;47.032;8.310;2023-05-29T02:43:39;12.60;99.90
46085;DHT22;31823;47.032;8.310;2023-05-29T02:46:05;12.60;99.90
46085;DHT22;31823;47.032;8.310;2023-05-29T02:48:30;12.50;99.90
46085;DHT22;31823;47.032;8.310;2023-05-29T02:50:56;12.40;99.90
46085;DHT22;31823;47.032;8.310;2023-05-29T02:53:22;12.40;99.90
46085;DHT22;31823;47.032;8.310;2023-05-29T02:55:48;12.40;99.90
46085;DHT22;31823;47.032;8.310;2023-05-29T02:58:14;12.30;99.90
46085;DHT22;31823;47.032;8.310;2023-05-29T03:00:41;12.40;99.90
46085;DHT22;31823;47.032;8.310;2023-05-29T03:03:07;12.40;99.90
46085;DHT22;31823;47.032;8.310;2023-05-29T03:05:33;12.20;99.90
46085;DHT22;31823;47.032;8.310;2023-05-29T03:07:58;12.20;99.90
46085;DHT22;31823;47.032;8.310;2023-05-29T03:10:24;12.10;99.90
46085;DHT22;31823;47.032;8.310;2023-05-29T03:12:49;12.20;99.90
46085;DHT22;31823;47.032;8.310;2023-05-29T03:15:16;12.20;99.90
46085;DHT22;31823;47.032;8.310;2023-05-29T03:17:42;12.10;99.90
46085;DHT22;31823;47.032;8.310;2023-05-29T03:20:08;12.10;99.90
46085;DHT22;31823;47.032;8.310;2023-05-29T03:22:34;12.10;99.90
46085;DHT22;31823;47.032;8.310;2023-05-29T03:25:02;12.10;99.90
46085;DHT22;31823;47.032;8.310;2023-05-29T03:27:28;12.00;99.90
46085;DHT22;31823;47.032;8.310;2023-05-29T03:29:54;11.90;99.90
46085;DHT22;31823;47.032;8.310;2023-05-29T03:32:20;12.00;99.90
46085;DHT22;31823;47.032;8.310;2023-05-29T03:34:46;12.00;99.90
46085;DHT22;31823;47.032;8.310;2023-05-29T03:37:13;12.00;99.90
46085;DHT22;31823;47.032;8.310;2023-05-29T03:39:38;11.90;99.90
46085;DHT22;31823;47.032;8.310;2023-05-29T03:42:04;11.90;99.90
46085;DHT22;31823;47.032;8.310;2023-05-29T03:44:30;11.90;99.90
46085;DHT22;31823;47.032;8.310;2023-05-29T03:46:55;12.00;99.90
46085;DHT22;31823;47.032;8.310;2023-05-29T03:49:21;11.90;99.90
46085;DHT22;31823;47.032;8.310;2023-05-29T03:51:46;11.90;99.90
46085;DHT22;31823;47.032;8.310;2023-05-29T03:54:12;11.80;99.90
46085;DHT22;31823;47.032;8.310;2023-05-29T03:56:37;11.80;99.90
46085;DHT22;31823;47.032;8.310;2023-05-29T03:59:03;11.70;99.90
46085;DHT22;31823;47.032;8.310;2023-05-29T04:01:28;11.70;99.90
46085;DHT22;31823;47.032;8.310;2023-05-29T04:03:54;11.70;99.90
46085;DHT22;31823;47.032;8.310;2023-05-29T04:06:20;11.80;99.90
46085;DHT22;31823;47.032;8.310;2023-05-29T04:08:47;11.80;99.90
46085;DHT22;31823;47.032;8.310;2023-05-29T04:11:13;11.90;99.90
46085;DHT22;31823;47.032;8.310;2023-05-29T04:13:39;12.00;99.90
46085;DHT22;31823;47.032;8.310;2023-05-29T04:16:05;12.00;99.90
46085;DHT22;31823;47.032;8.310;2023-05-29T04:18:31;12.00;99.90
46085;DHT22;31823;47.032;8.310;2023-05-29T04:20:57;11.90;99.90
46085;DHT22;31823;47.032;8.310;2023-05-29T04:23:22;11.90;99.90
46085;DHT22;31823;47.032;8.310;2023-05-29T04:25:48;11.90;99.90
46085;DHT22;31823;47.032;8.310;2023-05-29T04:28:16;11.90;99.90
46085;DHT22;31823;47.032;8.310;2023-05-29T04:30:42;11.90;99.90
46085;DHT22;31823;47.032;8.310;2023-05-29T04:33:08;11.90;99.90
46085;DHT22;31823;47.032;8.310;2023-05-29T04:35:35;11.90;99.90
46085;DHT22;31823;47.032;8.310;2023-05-29T04:38:00;11.90;99.90
46085;DHT22;31823;47.032;8.310;2023-05-29T04:40:26;12.00;99.90
46085;DHT22;31823;47.032;8.310;2023-05-29T04:42:52;12.00;99.90
46085;DHT22;31823;47.032;8.310;2023-05-29T04:45:19;11.90;99.90
46085;DHT22;31823;47.032;8.310;2023-05-29T04:47:46;12.00;99.90
46085;DHT22;31823;47.032;8.310;2023-05-29T04:50:12;12.00;99.90
46085;DHT22;31823;47.032;8.310;2023-05-29T04:52:38;12.00;99.90
46085;DHT22;31823;47.032;8.310;2023-05-29T04:55:04;12.00;99.90
46085;DHT22;31823;47.032;8.310;2023-05-29T04:57:30;12.10;99.90
46085;DHT22;31823;47.032;8.310;2023-05-29T04:59:55;12.10;99.90
46085;DHT22;31823;47.032;8.310;2023-05-29T05:02:21;12.10;99.90
46085;DHT22;31823;47.032;8.310;2023-05-29T05:04:46;12.00;99.90
46085;DHT22;31823;47.032;8.310;2023-05-29T05:07:12;12.00;99.90
46085;DHT22;31823;47.032;8.310;2023-05-29T05:09:38;12.10;99.90
46085;DHT22;31823;47.032;8.310;2023-05-29T05:12:04;12.20;99.90
46085;DHT22;31823;47.032;8.310;2023-05-29T05:14:31;12.10;99.90
46085;DHT22;31823;47.032;8.310;2023-05-29T05:16:56;12.10;99.90
46085;DHT22;31823;47.032;8.310;2023-05-29T05:19:22;12.10;99.90
46085;DHT22;31823;47.032;8.310;2023-05-29T05:21:47;12.10;99.90
46085;DHT22;31823;47.032;8.310;2023-05-29T05:24:13;12.20;99.90
46085;DHT22;31823;47.032;8.310;2023-05-29T05:26:38;12.20;99.90
46085;DHT22;31823;47.032;8.310;2023-05-29T05:29:04;12.20;99.90
46085;DHT22;31823;47.032;8.310;2023-05-29T05:31:29;12.20;99.90
46085;DHT22;31823;47.032;8.310;2023-05-29T05:33:55;12.20;99.90
46085;DHT22;31823;47.032;8.310;2023-05-29T05:36:20;12.30;99.90
46085;DHT22;31823;47.032;8.310;2023-05-29T05:38:46;12.30;99.90
46085;DHT22;31823;47.032;8.310;2023-05-29T05:41:12;12.40;99.90
46085;DHT22;31823;47.032;8.310;2023-05-29T05:43:37;12.50;99.90
46085;DHT22;31823;47.032;8.310;2023-05-29T05:46:03;12.60;99.90
46085;DHT22;31823;47.032;8.310;2023-05-29T05:48:28;12.60;99.90
46085;DHT22;31823;47.032;8.310;2023-05-29T05:50:54;12.70;99.90
46085;DHT22;31823;47.032;8.310;2023-05-29T05:53:19;12.80;99.90
46085;DHT22;31823;47.032;8.310;2023-05-29T05:55:46;12.80;99.90
46085;DHT22;31823;47.032;8.310;2023-05-29T05:58:12;12.90;99.90
46085;DHT22;31823;47.032;8.310;2023-05-29T06:00:38;13.00;99.90
46085;DHT22;31823;47.032;8.310;2023-05-29T06:03:04;13.20;99.90
46085;DHT22;31823;47.032;8.310;2023-05-29T06:05:30;13.20;99.90
46085;DHT22;31823;47.032;8.310;2023-05-29T06:07:55;13.40;99.90
46085;DHT22;31823;47.032;8.310;2023-05-29T06:10:21;13.50;99.90
46085;DHT22;31823;47.032;8.310;2023-05-29T06:12:47;13.60;99.90
46085;DHT22;31823;47.032;8.310;2023-05-29T06:15:12;13.60;99.90
46085;DHT22;31823;47.032;8.310;2023-05-29T06:17:38;13.60;99.90
46085;DHT22;31823;47.032;8.310;2023-05-29T06:20:05;13.80;99.90
46085;DHT22;31823;47.032;8.310;2023-05-29T06:22:35;13.90;99.90
46085;DHT22;31823;47.032;8.310;2023-05-29T06:25:01;14.30;99.90
46085;DHT22;31823;47.032;8.310;2023-05-29T06:27:26;14.20;99.90
46085;DHT22;31823;47.032;8.310;2023-05-29T06:29:52;14.30;99.90
46085;DHT22;31823;47.032;8.310;2023-05-29T06:32:18;14.60;99.90
46085;DHT22;31823;47.032;8.310;2023-05-29T06:34:43;15.00;99.90
46085;DHT22;31823;47.032;8.310;2023-05-29T06:37:09;15.30;99.90
46085;DHT22;31823;47.032;8.310;2023-05-29T06:39:34;15.50;99.90
46085;DHT22;31823;47.032;8.310;2023-05-29T06:42:00;15.60;99.90
46085;DHT22;31823;47.032;8.310;2023-05-29T06:44:26;15.90;99.90
46085;DHT22;31823;47.032;8.310;2023-05-29T06:46:52;16.20;99.90
46085;DHT22;31823;47.032;8.310;2023-05-29T06:49:18;16.70;99.90
46085;DHT22;31823;47.032;8.310;2023-05-29T06:51:44;16.80;99.90
46085;DHT22;31823;47.032;8.310;2023-05-29T06:54:10;16.90;99.90
46085;DHT22;31823;47.032;8.310;2023-05-29T06:56:35;16.80;99.90
46085;DHT22;31823;47.032;8.310;2023-05-29T06:59:01;16.80;99.90
46085;DHT22;31823;47.032;8.310;2023-05-29T07:01:58;16.90;99.90
46085;DHT22;31823;47.032;8.310;2023-05-29T07:04:23;17.00;99.90
46085;DHT22;31823;47.032;8.310;2023-05-29T07:06:49;16.90;99.90
46085;DHT22;31823;47.032;8.310;2023-05-29T07:09:14;17.00;99.90
46085;DHT22;31823;47.032;8.310;2023-05-29T07:11:40;17.20;99.90
46085;DHT22;31823;47.032;8.310;2023-05-29T07:14:05;17.40;99.90
46085;DHT22;31823;47.032;8.310;2023-05-29T07:16:32;17.60;99.90
46085;DHT22;31823;47.032;8.310;2023-05-29T07:18:57;17.80;99.90
46085;DHT22;31823;47.032;8.310;2023-05-29T07:21:23;17.70;99.90
46085;DHT22;31823;47.032;8.310;2023-05-29T07:23:48;17.80;99.90
46085;DHT22;31823;47.032;8.310;2023-05-29T07:26:14;18.00;99.90
46085;DHT22;31823;47.032;8.310;2023-05-29T07:28:40;18.00;99.90
46085;DHT22;31823;47.032;8.310;2023-05-29T07:31:05;17.80;99.90
46085;DHT22;31823;47.032;8.310;2023-05-29T07:33:31;18.10;99.90
46085;DHT22;31823;47.032;8.310;2023-05-29T07:35:56;18.10;99.90
46085;DHT22;31823;47.032;8.310;2023-05-29T07:38:22;18.10;99.90
46085;DHT22;31823;47.032;8.310;2023-05-29T07:40:47;18.30;99.90
46085;DHT22;31823;47.032;8.310;2023-05-29T07:43:13;18.20;99.90
46085;DHT22;31823;47.032;8.310;2023-05-29T07:45:38;18.40;99.90
46085;DHT22;31823;47.032;8.310;2023-05-29T07:48:04;18.50;99.90
46085;DHT22;31823;47.032;8.310;2023-05-29T07:50:30;18.40;99.70
46085;DHT22;31823;47.032;8.310;2023-05-29T07:52:55;18.70;98.90
46085;DHT22;31823;47.032;8.310;2023-05-29T07:55:21;18.80;98.30
46085;DHT22;31823;47.032;8.310;2023-05-29T07:57:47;19.20;99.10
46085;DHT22;31823;47.032;8.310;2023-05-29T08:00:14;18.90;96.50
46085;DHT22;31823;47.032;8.310;2023-05-29T08:02:40;19.00;99.40
46085;DHT22;31823;47.032;8.310;2023-05-29T08:05:08;19.30;99.90
46085;DHT22;31823;47.032;8.310;2023-05-29T08:07:34;19.10;97.70
46085;DHT22;31823;47.032;8.310;2023-05-29T08:10:00;19.10;99.90
46085;DHT22;31823;47.032;8.310;2023-05-29T08:12:26;19.30;99.40
46085;DHT22;31823;47.032;8.310;2023-05-29T08:14:51;19.40;99.60
46085;DHT22;31823;47.032;8.310;2023-05-29T08:17:17;19.50;99.50
46085;DHT22;31823;47.032;8.310;2023-05-29T08:19:42;19.50;98.10
46085;DHT22;31823;47.032;8.310;2023-05-29T08:22:12;19.80;97.80
46085;DHT22;31823;47.032;8.310;2023-05-29T08:24:39;19.60;96.30
46085;DHT22;31823;47.032;8.310;2023-05-29T08:27:04;19.70;98.10
46085;DHT22;31823;47.032;8.310;2023-05-29T08:29:30;20.00;97.20
46085;DHT22;31823;47.032;8.310;2023-05-29T08:31:56;20.00;99.90
46085;DHT22;31823;47.032;8.310;2023-05-29T08:34:21;20.10;98.50
46085;DHT22;31823;47.032;8.310;2023-05-29T08:36:47;19.90;98.90
46085;DHT22;31823;47.032;8.310;2023-05-29T08:39:13;20.00;98.60
46085;DHT22;31823;47.032;8.310;2023-05-29T08:41:53;19.80;98.90
46085;DHT22;31823;47.032;8.310;2023-05-29T08:44:22;19.90;99.50
46085;DHT22;31823;47.032;8.310;2023-05-29T08:46:54;20.30;97.80
46085;DHT22;31823;47.032;8.310;2023-05-29T08:49:20;20.40;96.80
46085;DHT22;31823;47.032;8.310;2023-05-29T08:51:49;20.30;96.90
46085;DHT22;31823;47.032;8.310;2023-05-29T08:54:19;20.00;95.00
46085;DHT22;31823;47.032;8.310;2023-05-29T08:56:44;20.20;97.50
46085;DHT22;31823;47.032;8.310;2023-05-29T08:59:11;20.40;98.20
46085;DHT22;31823;47.032;8.310;2023-05-29T09:01:38;20.20;99.90
46085;DHT22;31823;47.032;8.310;2023-05-29T09:04:04;20.00;96.30
46085;DHT22;31823;47.032;8.310;2023-05-29T09:06:30;20.20;99.90
46085;DHT22;31823;47.032;8.310;2023-05-29T09:08:56;20.40;97.40
46085;DHT22;31823;47.032;8.310;2023-05-29T09:11:23;20.70;97.70
46085;DHT22;31823;47.032;8.310;2023-05-29T09:13:49;20.80;97.70
46085;DHT22;31823;47.032;8.310;2023-05-29T09:16:16;21.20;97.00
46085;DHT22;31823;47.032;8.310;2023-05-29T09:18:42;21.10;95.80
46085;DHT22;31823;47.032;8.310;2023-05-29T09:21:25;21.20;96.70
46085;DHT22;31823;47.032;8.310;2023-05-29T09:23:54;21.40;96.30
46085;DHT22;31823;47.032;8.310;2023-05-29T09:26:21;20.90;96.70
46085;DHT22;31823;47.032;8.310;2023-05-29T09:28:48;21.20;97.10
46085;DHT22;31823;47.032;8.310;2023-05-29T09:31:15;21.30;98.20
46085;DHT22;31823;47.032;8.310;2023-05-29T09:33:49;21.90;97.70
46085;DHT22;31823;47.032;8.310;2023-05-29T09:36:23;21.40;94.70
46085;DHT22;31823;47.032;8.310;2023-05-29T09:38:50;21.70;98.90
46085;DHT22;31823;47.032;8.310;2023-05-29T09:41:23;21.90;96.70
46085;DHT22;31823;47.032;8.310;2023-05-29T09:43:49;21.90;96.70
46085;DHT22;31823;47.032;8.310;2023-05-29T09:46:16;22.40;95.70
46085;DHT22;31823;47.032;8.310;2023-05-29T09:48:45;22.60;96.10
46085;DHT22;31823;47.032;8.310;2023-05-29T09:51:23;22.80;95.40
46085;DHT22;31823;47.032;8.310;2023-05-29T09:53:49;22.60;95.90
46085;DHT22;31823;47.032;8.310;2023-05-29T09:56:17;22.70;95.80
46085;DHT22;31823;47.032;8.310;2023-05-29T09:58:43;22.30;96.50
46085;DHT22;31823;47.032;8.310;2023-05-29T10:01:13;22.60;95.20
46085;DHT22;31823;47.032;8.310;2023-05-29T10:03:41;22.70;95.70
46085;DHT22;31823;47.032;8.310;2023-05-29T10:06:08;23.10;97.00
46085;DHT22;31823;47.032;8.310;2023-05-29T10:08:37;22.80;94.60
46085;DHT22;31823;47.032;8.310;2023-05-29T10:11:08;22.90;95.30
46085;DHT22;31823;47.032;8.310;2023-05-29T10:13:41;23.00;95.80
46085;DHT22;31823;47.032;8.310;2023-05-29T10:16:14;23.30;92.70
46085;DHT22;31823;47.032;8.310;2023-05-29T10:18:43;22.70;94.20
46085;DHT22;31823;47.032;8.310;2023-05-29T10:21:12;23.20;94.80
46085;DHT22;31823;47.032;8.310;2023-05-29T10:23:38;23.10;94.60
46085;DHT22;31823;47.032;8.310;2023-05-29T10:26:22;23.10;95.90
46085;DHT22;31823;47.032;8.310;2023-05-29T10:31:22;23.50;92.60
46085;DHT22;31823;47.032;8.310;2023-05-29T10:36:35;23.90;93.90
46085;DHT22;31823;47.032;8.310;2023-05-29T10:39:04;24.00;94.80
46085;DHT22;31823;47.032;8.310;2023-05-29T10:41:30;23.90;94.60
46085;DHT22;31823;47.032;8.310;2023-05-29T10:43:59;23.60;94.50
46085;DHT22;31823;47.032;8.310;2023-05-29T10:49:20;23.80;94.60
46085;DHT22;31823;47.032;8.310;2023-05-29T10:51:46;24.30;94.60
46085;DHT22;31823;47.032;8.310;2023-05-29T10:54:13;24.40;93.10
46085;DHT22;31823;47.032;8.310;2023-05-29T10:56:52;24.40;94.80
46085;DHT22;31823;47.032;8.310;2023-05-29T10:59:18;24.40;93.50
46085;DHT22;31823;47.032;8.310;2023-05-29T11:01:44;24.90;92.60
46085;DHT22;31823;47.032;8.310;2023-05-29T11:06:47;24.30;91.40
46085;DHT22;31823;47.032;8.310;2023-05-29T11:09:33;24.60;92.70
46085;DHT22;31823;47.032;8.310;2023-05-29T11:14:47;24.70;93.10
46085;DHT22;31823;47.032;8.310;2023-05-29T11:20:00;24.60;93.80
46085;DHT22;31823;47.032;8.310;2023-05-29T11:25:15;25.20;90.70
46085;DHT22;31823;47.032;8.310;2023-05-29T11:27:43;25.50;91.90
46085;DHT22;31823;47.032;8.310;2023-05-29T11:30:09;25.50;92.80
46085;DHT22;31823;47.032;8.310;2023-05-29T11:32:36;25.20;91.40
46085;DHT22;31823;47.032;8.310;2023-05-29T11:35:08;25.60;90.20
46085;DHT22;31823;47.032;8.310;2023-05-29T11:37:35;25.60;90.20
46085;DHT22;31823;47.032;8.310;2023-05-29T11:40:04;25.40;93.30
46085;DHT22;31823;47.032;8.310;2023-05-29T11:42:31;25.20;89.10
46085;DHT22;31823;47.032;8.310;2023-05-29T11:45:19;25.70;92.10
46085;DHT22;31823;47.032;8.310;2023-05-29T11:47:59;26.20;91.60
46085;DHT22;31823;47.032;8.310;2023-05-29T11:50:27;26.00;88.00
46085;DHT22;31823;47.032;8.310;2023-05-29T11:52:53;25.70;90.00
46085;DHT22;31823;47.032;8.310;2023-05-29T11:55:19;26.40;91.60
46085;DHT22;31823;47.032;8.310;2023-05-29T11:57:46;26.10;87.80
46085;DHT22;31823;47.032;8.310;2023-05-29T12:00:14;26.10;87.20
46085;DHT22;31823;47.032;8.310;2023-05-29T12:02:40;26.20;92.00
46085;DHT22;31823;47.032;8.310;2023-05-29T12:05:08;26.00;88.40
46085;DHT22;31823;47.032;8.310;2023-05-29T12:07:34;26.30;90.00
46085;DHT22;31823;47.032;8.310;2023-05-29T12:10:14;26.70;91.00
46085;DHT22;31823;47.032;8.310;2023-05-29T12:12:40;26.40;86.70
46085;DHT22;31823;47.032;8.310;2023-05-29T12:15:09;26.60;90.20
46085;DHT22;31823;47.032;8.310;2023-05-29T12:17:35;26.20;89.70
46085;DHT22;31823;47.032;8.310;2023-05-29T12:20:03;26.60;88.50
46085;DHT22;31823;47.032;8.310;2023-05-29T12:22:36;26.80;89.00
46085;DHT22;31823;47.032;8.310;2023-05-29T12:25:12;26.50;90.20
46085;DHT22;31823;47.032;8.310;2023-05-29T12:27:39;26.80;90.10
46085;DHT22;31823;47.032;8.310;2023-05-29T12:30:19;26.50;87.30
46085;DHT22;31823;47.032;8.310;2023-05-29T12:32:47;26.90;90.20
46085;DHT22;31823;47.032;8.310;2023-05-29T12:35:13;27.20;85.90
46085;DHT22;31823;47.032;8.310;2023-05-29T12:38:05;26.70;85.50
46085;DHT22;31823;47.032;8.310;2023-05-29T12:40:30;27.10;90.50
46085;DHT22;31823;47.032;8.310;2023-05-29T12:43:05;27.10;85.00
46085;DHT22;31823;47.032;8.310;2023-05-29T12:45:33;27.20;89.00
46085;DHT22;31823;47.032;8.310;2023-05-29T12:48:01;26.90;86.50
46085;DHT22;31823;47.032;8.310;2023-05-29T12:50:39;27.00;86.50
46085;DHT22;31823;47.032;8.310;2023-05-29T12:53:06;26.60;84.90
46085;DHT22;31823;47.032;8.310;2023-05-29T12:55:40;26.70;85.80
46085;DHT22;31823;47.032;8.310;2023-05-29T12:58:07;27.30;87.80
46085;DHT22;31823;47.032;8.310;2023-05-29T13:00:37;27.20;84.40
46085;DHT22;31823;47.032;8.310;2023-05-29T13:03:04;26.80;85.20
46085;DHT22;31823;47.032;8.310;2023-05-29T13:05:30;27.30;88.40
46085;DHT22;31823;47.032;8.310;2023-05-29T13:07:55;27.60;86.40
46085;DHT22;31823;47.032;8.310;2023-05-29T13:10:22;27.30;86.70
46085;DHT22;31823;47.032;8.310;2023-05-29T13:12:48;27.50;84.70
46085;DHT22;31823;47.032;8.310;2023-05-29T13:15:19;27.10;83.70
46085;DHT22;31823;47.032;8.310;2023-05-29T13:17:44;27.40;84.00
46085;DHT22;31823;47.032;8.310;2023-05-29T13:20:11;27.10;85.40
46085;DHT22;31823;47.032;8.310;2023-05-29T13:22:38;27.40;88.10
46085;DHT22;31823;47.032;8.310;2023-05-29T13:25:04;27.10;83.90
46085;DHT22;31823;47.032;8.310;2023-05-29T13:27:32;27.20;83.90
46085;DHT22;31823;47.032;8.310;2023-05-29T13:29:59;27.30;86.00
46085;DHT22;31823;47.032;8.310;2023-05-29T13:32:24;27.30;81.40
46085;DHT22;31823;47.032;8.310;2023-05-29T13:34:50;27.50;80.80
46085;DHT22;31823;47.032;8.310;2023-05-29T13:37:15;27.30;87.50
46085;DHT22;31823;47.032;8.310;2023-05-29T13:39:41;27.30;84.20
46085;DHT22;31823;47.032;8.310;2023-05-29T13:42:07;27.30;87.30
46085;DHT22;31823;47.032;8.310;2023-05-29T13:44:33;27.30;83.60
46085;DHT22;31823;47.032;8.310;2023-05-29T13:46:59;27.00;83.70
46085;DHT22;31823;47.032;8.310;2023-05-29T13:49:26;27.00;83.60
46085;DHT22;31823;47.032;8.310;2023-05-29T13:51:52;27.30;84.70
46085;DHT22;31823;47.032;8.310;2023-05-29T13:54:17;26.40;82.90
46085;DHT22;31823;47.032;8.310;2023-05-29T13:56:44;26.60;82.50
46085;DHT22;31823;47.032;8.310;2023-05-29T13:59:10;27.10;86.80
46085;DHT22;31823;47.032;8.310;2023-05-29T14:01:35;27.20;84.30
46085;DHT22;31823;47.032;8.310;2023-05-29T14:04:01;27.10;81.70
46085;DHT22;31823;47.032;8.310;2023-05-29T14:06:27;26.70;81.80
46085;DHT22;31823;47.032;8.310;2023-05-29T14:08:53;27.00;86.10
46085;DHT22;31823;47.032;8.310;2023-05-29T14:11:19;27.00;82.40
46085;DHT22;31823;47.032;8.310;2023-05-29T14:13:45;27.30;87.20
46085;DHT22;31823;47.032;8.310;2023-05-29T14:16:11;27.00;83.70
46085;DHT22;31823;47.032;8.310;2023-05-29T14:18:36;27.10;84.00
46085;DHT22;31823;47.032;8.310;2023-05-29T14:21:02;27.40;84.30
46085;DHT22;31823;47.032;8.310;2023-05-29T14:23:27;26.80;81.80
46085;DHT22;31823;47.032;8.310;2023-05-29T14:25:53;26.40;83.30
46085;DHT22;31823;47.032;8.310;2023-05-29T14:28:19;26.80;82.30
46085;DHT22;31823;47.032;8.310;2023-05-29T14:30:44;27.00;83.20
46085;DHT22;31823;47.032;8.310;2023-05-29T14:33:10;26.70;80.00
46085;DHT22;31823;47.032;8.310;2023-05-29T14:35:36;26.80;81.20
46085;DHT22;31823;47.032;8.310;2023-05-29T14:38:01;26.60;77.80
46085;DHT22;31823;47.032;8.310;2023-05-29T14:40:27;27.00;80.80
46085;DHT22;31823;47.032;8.310;2023-05-29T14:42:53;26.90;81.90
46085;DHT22;31823;47.032;8.310;2023-05-29T14:45:19;26.70;82.50
46085;DHT22;31823;47.032;8.310;2023-05-29T14:47:44;26.60;79.90
46085;DHT22;31823;47.032;8.310;2023-05-29T14:50:10;26.90;81.50
46085;DHT22;31823;47.032;8.310;2023-05-29T14:52:37;26.10;79.60
46085;DHT22;31823;47.032;8.310;2023-05-29T14:55:04;26.50;78.70
46085;DHT22;31823;47.032;8.310;2023-05-29T14:57:30;26.60;80.10
46085;DHT22;31823;47.032;8.310;2023-05-29T14:59:58;26.90;81.40
46085;DHT22;31823;47.032;8.310;2023-05-29T15:02:24;26.70;81.60
46085;DHT22;31823;47.032;8.310;2023-05-29T15:04:50;27.10;80.80
46085;DHT22;31823;47.032;8.310;2023-05-29T15:07:16;26.80;78.90
46085;DHT22;31823;47.032;8.310;2023-05-29T15:09:42;26.30;81.70
46085;DHT22;31823;47.032;8.310;2023-05-29T15:12:08;26.40;83.30
46085;DHT22;31823;47.032;8.310;2023-05-29T15:14:34;26.50;79.40
46085;DHT22;31823;47.032;8.310;2023-05-29T15:17:00;26.50;77.70
46085;DHT22;31823;47.032;8.310;2023-05-29T15:19:26;26.50;80.00
46085;DHT22;31823;47.032;8.310;2023-05-29T15:21:51;26.70;76.90
46085;DHT22;31823;47.032;8.310;2023-05-29T15:24:17;26.60;77.40
46085;DHT22;31823;47.032;8.310;2023-05-29T15:26:43;26.70;77.50
46085;DHT22;31823;47.032;8.310;2023-05-29T15:29:08;26.70;77.20
46085;DHT22;31823;47.032;8.310;2023-05-29T15:31:34;26.90;81.00
46085;DHT22;31823;47.032;8.310;2023-05-29T15:34:00;26.80;78.40
46085;DHT22;31823;47.032;8.310;2023-05-29T15:36:25;26.60;78.30
46085;DHT22;31823;47.032;8.310;2023-05-29T15:38:51;26.30;78.00
46085;DHT22;31823;47.032;8.310;2023-05-29T15:41:16;26.20;78.40
46085;DHT22;31823;47.032;8.310;2023-05-29T15:43:42;26.20;78.20
46085;DHT22;31823;47.032;8.310;2023-05-29T15:46:07;26.10;79.80
46085;DHT22;31823;47.032;8.310;2023-05-29T15:48:34;26.00;78.70
46085;DHT22;31823;47.032;8.310;2023-05-29T15:50:59;25.80;77.90
46085;DHT22;31823;47.032;8.310;2023-05-29T15:53:25;25.80;79.50